Sandy Plains, Georgia
Current Conditions -  °F | °C
As of 10:58 AM on Sunday 25 Jan 2015 (Local Time) from KMGE Reporting Station
Few Clouds Few Clouds  
Wind Chill: 44°   Ceiling: Unl
Heat Index: 47°   Visibility: 10mi
Dew Point: 34°   Wind: 6mph
Humidity: 60%   Direction: 190°S
Pressure: 29.92"   Gusts: NA
Location:  34.0525°N, 84.3874°W
Report Text: KMGE 251558Z 19005KT 10SM FEW250 08/01 A2992 RMK AO2A SLP138 T00840011 $
Loading
Personal Weather Stations






























Interactive Weather Map New forecast layout! Learn more

10-Day Weather Forecast

Advertisements
Track Severe Weather on mobile